createdAt,value
2023-01-05T00:01:27.705Z,26.40
2023-01-05T00:03:55.018Z,37.77
2023-01-05T00:06:22.269Z,34.90
2023-01-05T00:08:49.626Z,20.60
2023-01-05T00:11:43.179Z,22.83
2023-01-05T00:14:33.874Z,21.57
2023-01-05T00:17:20.036Z,23.47
2023-01-05T00:20:05.856Z,22.07
2023-01-05T00:22:34.883Z,11.97
2023-01-05T00:25:11.553Z,11.03
2023-01-05T00:27:40.046Z,31.13
2023-01-05T00:30:08.147Z,23.53
2023-01-05T00:32:35.411Z,29.33
2023-01-05T00:35:03.006Z,21.93
2023-01-05T00:37:34.508Z,24.13
2023-01-05T00:40:01.775Z,16.57
2023-01-05T00:42:29.107Z,29.20
2023-01-05T00:44:56.525Z,36.07
2023-01-05T00:47:26.213Z,30.60
2023-01-05T00:49:53.896Z,19.33
2023-01-05T00:52:21.273Z,25.10
2023-01-05T00:54:49.410Z,21.17
2023-01-05T00:57:17.456Z,33.33
2023-01-05T00:59:44.828Z,15.10
2023-01-05T01:02:12.329Z,20.07
2023-01-05T01:04:39.671Z,18.17
2023-01-05T01:07:07.033Z,28.07
2023-01-05T01:09:34.837Z,25.70
2023-01-05T01:12:02.589Z,21.40
2023-01-05T01:14:29.957Z,18.43
2023-01-05T01:16:57.321Z,21.63
2023-01-05T01:19:25.769Z,25.33
2023-01-05T01:21:53.341Z,19.30
2023-01-05T01:24:22.193Z,19.03
2023-01-05T01:26:49.756Z,17.50
2023-01-05T01:29:17.405Z,19.27
2023-01-05T01:31:45.929Z,21.03
2023-01-05T01:34:13.146Z,22.17
2023-01-05T01:36:41.687Z,16.67
2023-01-05T01:39:09.439Z,18.90
2023-01-05T01:41:38.951Z,27.87
2023-01-05T01:44:25.437Z,24.87
2023-01-05T01:46:52.732Z,25.17
2023-01-05T01:49:19.963Z,21.07
2023-01-05T01:51:48.667Z,32.93
2023-01-05T01:54:17.923Z,43.07
2023-01-05T01:56:51.544Z,15.33
2023-01-05T01:59:19.330Z,29.43
2023-01-05T02:01:48.963Z,23.27
2023-01-05T02:04:16.409Z,41.67
2023-01-05T02:06:43.695Z,36.53
2023-01-05T02:09:11.286Z,29.70
2023-01-05T02:11:38.813Z,25.97
2023-01-05T02:14:33.555Z,34.40
2023-01-05T02:17:12.230Z,32.57
2023-01-05T02:19:39.466Z,16.87
2023-01-05T02:22:12.791Z,24.13
2023-01-05T02:24:52.267Z,31.77
2023-01-05T02:27:38.804Z,15.60
2023-01-05T02:30:06.129Z,26.57
2023-01-05T02:32:42.455Z,32.77
2023-01-05T02:35:32.964Z,23.73
2023-01-05T02:38:05.743Z,15.37
2023-01-05T02:40:35.400Z,22.37
2023-01-05T02:43:04.788Z,24.43
2023-01-05T02:45:32.031Z,23.00
2023-01-05T02:48:00.975Z,30.93
2023-01-05T02:50:31.103Z,19.90
2023-01-05T02:53:04.534Z,24.03
2023-01-05T02:55:51.687Z,23.93
2023-01-05T02:58:22.580Z,18.53
2023-01-05T03:01:01.721Z,22.87
2023-01-05T03:03:38.092Z,24.80
2023-01-05T03:07:46.101Z,31.43
2023-01-05T03:10:33.664Z,31.87
2023-01-05T03:13:23.910Z,31.07
2023-01-05T03:15:52.154Z,28.73
2023-01-05T03:18:20.998Z,28.80
2023-01-05T03:20:52.612Z,33.20
2023-01-05T03:23:39.692Z,32.40
2023-01-05T03:26:29.683Z,25.80
2023-01-05T03:29:18.687Z,27.67
2023-01-05T03:32:20.157Z,24.43
2023-01-05T03:35:24.215Z,17.57
2023-01-05T03:37:54.538Z,25.07
2023-01-05T03:40:25.678Z,15.63
2023-01-05T03:42:55.043Z,29.47
2023-01-05T03:45:24.303Z,31.63
2023-01-05T03:47:53.289Z,26.80
2023-01-05T03:50:25.488Z,14.97
2023-01-05T03:52:52.913Z,21.93
2023-01-05T03:55:20.261Z,25.93
2023-01-05T03:57:51.579Z,28.27
2023-01-05T04:00:20.548Z,34.30
2023-01-05T04:02:55.443Z,20.67
2023-01-05T04:05:23.390Z,15.37
2023-01-05T04:07:59.750Z,33.33
2023-01-05T04:10:28.632Z,7.33
2023-01-05T04:12:57.282Z,21.33
2023-01-05T04:15:25.568Z,28.03
2023-01-05T04:17:54.786Z,26.97
2023-01-05T04:20:22.101Z,23.60
2023-01-05T04:22:50.881Z,18.57
2023-01-05T04:25:20.911Z,25.83
2023-01-05T04:27:48.804Z,28.83
2023-01-05T04:30:17.787Z,29.03
2023-01-05T04:32:45.406Z,25.43
2023-01-05T04:35:15.912Z,17.70
2023-01-05T04:37:46.179Z,27.00
2023-01-05T04:40:14.077Z,31.53
2023-01-05T04:42:50.064Z,24.17
2023-01-05T04:45:17.700Z,17.73
2023-01-05T04:47:45.799Z,23.60
2023-01-05T04:50:17.314Z,34.17
2023-01-05T04:52:45.356Z,34.67
2023-01-05T04:55:13.229Z,33.90
2023-01-05T04:57:41.605Z,27.30
2023-01-05T05:00:12.826Z,23.57
2023-01-05T05:02:40.377Z,24.33
2023-01-05T05:05:10.335Z,30.23
2023-01-05T05:07:39.582Z,24.53
2023-01-05T05:10:09.183Z,37.10
2023-01-05T05:12:36.955Z,26.80
2023-01-05T05:15:06.787Z,26.83
2023-01-05T05:17:35.662Z,32.13
2023-01-05T05:20:03.440Z,21.43
2023-01-05T05:22:31.176Z,29.13
2023-01-05T05:25:00.693Z,27.63
2023-01-05T05:27:28.024Z,28.13
2023-01-05T05:29:55.322Z,34.57
2023-01-05T05:32:22.696Z,31.40
2023-01-05T05:34:49.999Z,31.53
2023-01-05T05:37:17.351Z,41.30
2023-01-05T05:39:44.825Z,40.13
2023-01-05T05:42:12.241Z,34.60
2023-01-05T05:44:39.842Z,36.13
2023-01-05T05:47:07.266Z,46.33
2023-01-05T05:49:34.692Z,36.47
2023-01-05T05:52:02.053Z,23.30
2023-01-05T05:54:29.392Z,33.97
2023-01-05T05:56:56.705Z,36.60
2023-01-05T05:59:24.029Z,34.13
2023-01-05T06:01:52.611Z,33.07
2023-01-05T06:04:20.167Z,24.73
2023-01-05T06:06:47.447Z,22.93
2023-01-05T06:09:14.890Z,26.47
2023-01-05T06:11:42.309Z,16.43
2023-01-05T06:14:09.863Z,39.50
2023-01-05T06:16:37.212Z,20.10
2023-01-05T06:19:04.613Z,24.57
2023-01-05T06:21:31.979Z,22.87
2023-01-05T06:23:59.343Z,21.97
2023-01-05T06:26:26.712Z,21.47
2023-01-05T06:28:54.096Z,29.90
2023-01-05T06:31:21.608Z,27.13
2023-01-05T06:33:49.233Z,19.87
2023-01-05T06:36:16.879Z,17.30
2023-01-05T06:38:44.584Z,24.23
2023-01-05T06:41:11.928Z,23.63
2023-01-05T06:43:39.351Z,42.63
2023-01-05T06:46:06.654Z,26.53
2023-01-05T06:48:34.077Z,17.93
2023-01-05T06:51:01.392Z,33.53
2023-01-05T06:53:28.807Z,21.10
2023-01-05T06:55:56.104Z,27.90
2023-01-05T06:58:23.443Z,20.80
2023-01-05T07:00:50.968Z,32.93
2023-01-05T07:03:18.340Z,27.27
2023-01-05T07:05:45.692Z,41.83
2023-01-05T07:08:13.042Z,33.33
2023-01-05T07:10:40.506Z,31.47
2023-01-05T07:13:07.845Z,37.23
2023-01-05T07:15:35.129Z,35.90
2023-01-05T07:18:02.479Z,34.63
2023-01-05T07:20:29.828Z,23.57
2023-01-05T07:22:57.185Z,39.93
2023-01-05T07:25:24.939Z,27.47
2023-01-05T07:27:52.721Z,25.63
2023-01-05T07:30:20.108Z,17.10
2023-01-05T07:32:47.614Z,25.90
2023-01-05T07:35:15.041Z,20.73
2023-01-05T07:37:44.383Z,23.20
2023-01-05T07:40:12.026Z,24.47
2023-01-05T07:42:39.389Z,8.83
2023-01-05T07:45:09.760Z,24.90
2023-01-05T07:47:39.871Z,18.50
2023-01-05T07:50:07.682Z,25.90
2023-01-05T07:52:35.064Z,18.50
2023-01-05T07:55:02.427Z,13.90
2023-01-05T07:57:29.734Z,19.10
2023-01-05T07:59:57.047Z,30.73
2023-01-05T08:02:24.617Z,24.53
2023-01-05T08:04:51.987Z,27.37
2023-01-05T08:07:19.303Z,33.90
2023-01-05T08:10:05.247Z,27.43
2023-01-05T08:12:32.700Z,25.47
2023-01-05T08:15:00.061Z,26.70
2023-01-05T08:17:27.360Z,21.87
2023-01-05T08:19:54.691Z,34.40
2023-01-05T08:22:21.996Z,17.93
2023-01-05T08:24:49.446Z,28.83
2023-01-05T08:27:16.806Z,24.67
2023-01-05T08:29:44.155Z,21.57
2023-01-05T08:32:11.544Z,19.10
2023-01-05T08:34:38.950Z,29.03
2023-01-05T08:37:06.266Z,23.23
2023-01-05T08:39:35.895Z,25.40
2023-01-05T08:42:03.225Z,34.77
2023-01-05T08:44:30.590Z,28.93
2023-01-05T08:46:57.927Z,18.30
2023-01-05T08:49:25.249Z,24.17
2023-01-05T08:51:52.599Z,21.63
2023-01-05T08:54:19.925Z,22.33
2023-01-05T08:56:50.479Z,19.63
2023-01-05T08:59:17.848Z,30.40
2023-01-05T09:01:45.491Z,15.70
2023-01-05T09:04:13.027Z,27.60
2023-01-05T09:06:41.340Z,27.03
2023-01-05T09:09:08.884Z,29.00
2023-01-05T09:11:36.240Z,20.93
2023-01-05T09:14:03.793Z,19.63
2023-01-05T09:19:20.350Z,15.17
2023-01-05T09:21:47.990Z,30.33
2023-01-05T09:24:15.477Z,23.53
2023-01-05T09:26:43.312Z,26.37
2023-01-05T09:29:11.327Z,29.70
2023-01-05T09:31:38.919Z,23.57
2023-01-05T09:34:06.305Z,28.70
2023-01-05T09:36:33.582Z,23.80
2023-01-05T09:39:01.294Z,31.13
2023-01-05T09:41:33.975Z,15.47
2023-01-05T09:44:03.628Z,34.17
2023-01-05T09:46:33.412Z,27.23
2023-01-05T09:49:02.089Z,28.20
2023-01-05T09:51:30.241Z,21.50
2023-01-05T09:53:58.797Z,24.17
2023-01-05T09:59:29.896Z,22.60
2023-01-05T10:01:59.877Z,11.63
2023-01-05T10:04:30.911Z,39.27
2023-01-05T10:07:03.448Z,28.47
2023-01-05T10:09:33.190Z,33.07
2023-01-05T10:12:24.224Z,23.83
2023-01-05T10:14:54.849Z,25.27
2023-01-05T10:20:42.815Z,18.77
2023-01-05T10:23:22.907Z,32.87
2023-01-05T10:25:56.159Z,24.57
2023-01-05T10:28:49.800Z,30.93
2023-01-05T10:31:24.075Z,24.40
2023-01-05T10:34:05.208Z,20.47
2023-01-05T10:39:26.340Z,23.17
2023-01-05T10:42:06.510Z,26.00
2023-01-05T10:44:46.140Z,25.67
2023-01-05T10:47:13.919Z,26.60
2023-01-05T10:49:42.730Z,20.77
2023-01-05T10:52:15.448Z,22.57
2023-01-05T10:54:45.620Z,21.77
2023-01-05T10:57:35.364Z,19.27
2023-01-05T11:00:09.228Z,24.20
2023-01-05T11:02:38.495Z,15.70
2023-01-05T11:05:05.963Z,28.33
2023-01-05T11:07:33.795Z,28.43
2023-01-05T11:10:01.781Z,33.67
2023-01-05T11:12:29.096Z,25.47
2023-01-05T11:14:58.931Z,36.40
2023-01-05T11:17:28.055Z,30.00
2023-01-05T11:19:56.516Z,24.33
2023-01-05T11:22:30.900Z,20.70
2023-01-05T11:25:13.753Z,32.50
2023-01-05T11:27:41.216Z,32.13
2023-01-05T11:30:17.765Z,31.27
2023-01-05T11:32:45.643Z,34.33
2023-01-05T11:35:19.039Z,39.80
2023-01-05T11:37:46.641Z,38.43
2023-01-05T11:40:18.063Z,34.40
2023-01-05T11:42:45.648Z,38.63
2023-01-05T11:45:20.641Z,37.47
2023-01-05T11:47:49.501Z,33.97
2023-01-05T11:50:35.749Z,37.17
2023-01-05T11:53:03.416Z,16.63
2023-01-05T11:55:38.259Z,14.00
2023-01-05T11:58:13.883Z,26.20
2023-01-05T12:00:52.010Z,21.33
2023-01-05T12:03:30.404Z,20.57
2023-01-05T12:05:59.104Z,16.80
2023-01-05T12:08:37.121Z,30.60
2023-01-05T12:11:17.943Z,24.07
2023-01-05T12:13:54.464Z,24.23
2023-01-05T12:16:40.798Z,22.03
2023-01-05T12:19:16.595Z,20.30
2023-01-05T12:22:02.871Z,27.07
2023-01-05T12:24:42.820Z,24.50
2023-01-05T12:27:28.948Z,14.83
2023-01-05T12:35:43.555Z,29.40
2023-01-05T12:38:17.259Z,19.83
2023-01-05T12:40:52.644Z,17.40
2023-01-05T12:43:35.590Z,12.57
2023-01-05T12:46:09.144Z,12.23
2023-01-05T12:48:42.142Z,15.87
2023-01-05T12:51:13.491Z,21.70
2023-01-05T12:53:40.791Z,21.37
2023-01-05T12:56:12.747Z,24.50
2023-01-05T12:58:45.776Z,23.17
2023-01-05T13:01:20.316Z,20.03
2023-01-05T13:03:50.084Z,25.40
2023-01-05T13:06:22.761Z,22.07
2023-01-05T13:09:16.260Z,24.27
2023-01-05T13:11:50.267Z,16.53
2023-01-05T13:14:19.527Z,19.87
2023-01-05T13:16:49.255Z,23.23
2023-01-05T13:19:21.267Z,17.40
2023-01-05T13:21:48.737Z,18.83
2023-01-05T13:24:22.909Z,19.13
2023-01-05T13:26:50.478Z,9.43
2023-01-05T13:29:23.842Z,31.90
2023-01-05T13:31:51.201Z,15.07
2023-01-05T13:34:38.034Z,20.87
2023-01-05T13:37:24.341Z,27.40
2023-01-05T13:40:09.028Z,16.57
2023-01-05T13:42:54.938Z,16.30
2023-01-05T13:45:40.996Z,26.23
2023-01-05T13:48:25.602Z,21.43
2023-01-05T13:51:19.981Z,22.00
2023-01-05T13:53:49.091Z,24.50
2023-01-05T13:56:22.784Z,15.50
2023-01-05T13:58:52.183Z,23.00
2023-01-05T14:01:35.206Z,13.30
2023-01-05T14:04:02.983Z,14.53
2023-01-05T14:06:32.145Z,15.20
2023-01-05T14:09:08.014Z,21.27
2023-01-05T14:11:36.760Z,18.77
2023-01-05T14:14:08.448Z,18.27
2023-01-05T14:16:36.108Z,39.23
2023-01-05T14:19:22.711Z,17.97
2023-01-05T14:21:50.047Z,19.33
2023-01-05T14:27:06.807Z,23.03
2023-01-05T14:29:46.776Z,15.90
2023-01-05T14:32:26.633Z,21.30
2023-01-05T14:37:24.328Z,20.20
2023-01-05T14:39:53.270Z,17.10
2023-01-05T14:42:26.368Z,19.33
2023-01-05T14:44:58.987Z,14.40
2023-01-05T14:47:41.862Z,19.13
2023-01-05T14:50:28.175Z,17.77
2023-01-05T14:52:55.509Z,26.00
2023-01-05T14:55:37.823Z,23.07
2023-01-05T14:58:35.525Z,27.30
2023-01-05T15:01:18.180Z,22.93
2023-01-05T15:04:03.880Z,14.77
2023-01-05T15:06:50.008Z,21.07
2023-01-05T15:09:29.283Z,22.80
2023-01-05T15:12:02.650Z,22.00
2023-01-05T15:14:42.395Z,22.90
2023-01-05T15:17:09.964Z,28.10
2023-01-05T15:19:55.892Z,22.67
2023-01-05T15:22:38.095Z,26.00
2023-01-05T15:25:15.368Z,31.40
2023-01-05T15:28:01.634Z,39.37
2023-01-05T15:30:36.571Z,36.73
2023-01-05T15:33:23.152Z,40.67
2023-01-05T15:36:02.617Z,35.80
2023-01-05T15:38:30.795Z,37.33
2023-01-05T15:41:09.767Z,37.20
2023-01-05T15:43:39.020Z,44.00
2023-01-05T15:46:07.085Z,40.50
2023-01-05T15:48:40.583Z,46.13
2023-01-05T15:51:08.274Z,36.07
2023-01-05T15:53:38.331Z,34.40
2023-01-05T15:56:06.834Z,35.83
2023-01-05T15:58:46.720Z,47.13
2023-01-05T16:01:15.398Z,37.70
2023-01-05T16:03:43.947Z,36.17
2023-01-05T16:06:22.038Z,47.23
2023-01-05T16:08:50.958Z,47.60
2023-01-05T16:11:47.790Z,38.63
2023-01-05T16:14:25.720Z,32.83
2023-01-05T16:16:54.871Z,37.53
2023-01-05T16:19:37.911Z,43.70
2023-01-05T16:22:09.595Z,40.43
2023-01-05T16:24:36.934Z,39.23
2023-01-05T16:27:05.315Z,46.73
2023-01-05T16:29:44.473Z,51.37
2023-01-05T16:32:30.645Z,40.17
2023-01-05T16:35:16.856Z,29.93
2023-01-05T16:37:44.207Z,32.50
2023-01-05T16:40:20.652Z,29.17
2023-01-05T16:42:50.506Z,37.53
2023-01-05T16:45:19.419Z,43.97
2023-01-05T16:47:47.322Z,48.70
2023-01-05T16:50:20.611Z,41.97
2023-01-05T16:52:54.143Z,45.10
2023-01-05T16:55:29.406Z,35.43
2023-01-05T16:57:57.444Z,60.47
2023-01-05T17:00:32.565Z,34.90
2023-01-05T17:03:23.730Z,54.80
2023-01-05T17:05:54.685Z,40.23
2023-01-05T17:08:23.240Z,42.27
2023-01-05T17:10:50.757Z,41.53
2023-01-05T17:13:20.922Z,32.17
2023-01-05T17:15:49.836Z,39.47
2023-01-05T17:18:24.471Z,38.17
2023-01-05T17:20:52.494Z,44.53
2023-01-05T17:23:24.736Z,47.23
2023-01-05T17:28:25.238Z,38.23
2023-01-05T17:30:53.226Z,38.40
2023-01-05T17:33:20.509Z,47.80
2023-01-05T17:38:20.437Z,38.53
2023-01-05T17:40:48.033Z,41.90
2023-01-05T17:43:15.276Z,37.00
2023-01-05T17:45:43.974Z,46.70
2023-01-05T17:50:43.839Z,50.97
2023-01-05T17:53:11.117Z,48.03
2023-01-05T17:55:38.550Z,44.00
2023-01-05T17:58:05.995Z,51.97
2023-01-05T18:00:34.952Z,40.90
2023-01-05T18:03:02.375Z,42.23
2023-01-05T18:05:29.560Z,56.00
2023-01-05T18:07:56.751Z,41.57
2023-01-05T18:10:27.038Z,47.77
2023-01-05T18:12:56.396Z,35.87
2023-01-05T18:15:23.591Z,37.43
2023-01-05T18:17:50.812Z,47.80
2023-01-05T18:20:20.062Z,43.03
2023-01-05T18:22:48.794Z,48.50
2023-01-05T18:25:16.203Z,49.10
2023-01-05T18:27:43.478Z,55.70
2023-01-05T18:30:11.655Z,47.10
2023-01-05T18:32:39.415Z,46.10
2023-01-05T18:35:09.902Z,50.87
2023-01-05T18:37:38.053Z,45.83
2023-01-05T18:40:05.639Z,60.03
2023-01-05T18:42:32.891Z,50.93
2023-01-05T18:45:04.991Z,51.00
2023-01-05T18:47:41.427Z,48.70
2023-01-05T18:50:09.520Z,49.20
2023-01-05T18:52:36.835Z,49.27
2023-01-05T18:55:04.188Z,49.17
2023-01-05T18:57:31.725Z,48.20
2023-01-05T18:59:59.321Z,38.60
2023-01-05T19:02:27.305Z,53.50
2023-01-05T19:04:55.794Z,48.40
2023-01-05T19:07:23.119Z,56.80
2023-01-05T19:09:50.431Z,48.73
2023-01-05T19:12:17.669Z,42.47
2023-01-05T19:14:44.998Z,50.88
2023-01-05T19:17:12.250Z,34.20
2023-01-05T19:19:39.487Z,45.80
2023-01-05T19:22:06.704Z,59.67
2023-01-05T19:24:35.303Z,49.03
2023-01-05T19:27:02.571Z,48.13
2023-01-05T19:29:29.843Z,48.90
2023-01-05T19:31:57.635Z,53.97
2023-01-05T19:34:24.871Z,44.83
2023-01-05T19:36:52.101Z,46.47
2023-01-05T19:39:21.773Z,50.97
2023-01-05T19:41:51.157Z,45.77
2023-01-05T19:44:19.712Z,37.70
2023-01-05T19:46:54.280Z,61.73
2023-01-05T19:49:22.919Z,49.80
2023-01-05T19:51:50.548Z,56.47
2023-01-05T19:54:18.258Z,39.20
2023-01-05T19:56:46.126Z,43.73
2023-01-05T19:59:17.701Z,47.87
2023-01-05T20:01:45.399Z,64.60
2023-01-05T20:04:12.741Z,42.90
2023-01-05T20:06:41.337Z,46.53
2023-01-05T20:09:10.622Z,67.13
2023-01-05T20:11:45.650Z,49.57
2023-01-05T20:14:12.941Z,64.20
2023-01-05T20:16:40.946Z,60.37
2023-01-05T20:19:08.745Z,46.73
2023-01-05T20:21:36.039Z,53.17
2023-01-05T20:24:06.491Z,58.53
2023-01-05T20:26:34.114Z,55.00
2023-01-05T20:29:01.476Z,59.00
2023-01-05T20:31:30.936Z,56.27
2023-01-05T20:33:59.402Z,46.80
2023-01-05T20:36:27.502Z,52.47
2023-01-05T20:38:55.137Z,47.73
2023-01-05T20:41:26.717Z,50.70
2023-01-05T20:43:54.385Z,48.53
2023-01-05T20:46:22.970Z,51.33
2023-01-05T20:48:51.141Z,45.17
2023-01-05T20:51:18.958Z,48.93
2023-01-05T20:53:46.248Z,52.33
2023-01-05T20:56:16.095Z,66.83
2023-01-05T20:58:44.406Z,49.63
2023-01-05T21:01:12.802Z,58.80
2023-01-05T21:03:40.753Z,48.50
2023-01-05T21:06:08.775Z,52.77
2023-01-05T21:08:36.009Z,42.77
2023-01-05T21:11:03.396Z,41.20
2023-01-05T21:13:32.973Z,54.23
2023-01-05T21:16:05.171Z,51.17
2023-01-05T21:18:33.565Z,46.50
2023-01-05T21:21:00.971Z,44.03
2023-01-05T21:23:28.197Z,45.53
2023-01-05T21:26:05.701Z,56.63
2023-01-05T21:28:36.465Z,57.27
2023-01-05T21:31:11.389Z,33.67
2023-01-05T21:33:40.233Z,44.70
2023-01-05T21:36:08.186Z,49.30
2023-01-05T21:39:02.088Z,37.73
2023-01-05T21:41:41.718Z,40.10
2023-01-05T21:44:10.682Z,53.40
2023-01-05T21:46:38.883Z,45.33
2023-01-05T21:49:07.059Z,37.70
2023-01-05T21:51:53.112Z,45.07
2023-01-05T21:54:39.634Z,38.93
2023-01-05T21:57:07.060Z,44.00
2023-01-05T21:59:34.598Z,40.57
2023-01-05T22:02:01.984Z,50.20
2023-01-05T22:04:29.372Z,40.67
2023-01-05T22:06:57.139Z,43.88
2023-01-05T22:09:24.416Z,34.23
2023-01-05T22:11:51.864Z,43.87
2023-01-05T22:14:19.283Z,44.67
2023-01-05T22:16:46.518Z,45.37
2023-01-05T22:19:13.825Z,44.60
2023-01-05T22:21:41.080Z,51.30
2023-01-05T22:24:09.634Z,47.03
2023-01-05T22:26:36.903Z,40.23
2023-01-05T22:29:04.182Z,46.13
2023-01-05T22:31:32.397Z,43.03
2023-01-05T22:34:00.620Z,36.47
2023-01-05T22:36:29.040Z,46.43
2023-01-05T22:38:57.060Z,40.07
2023-01-05T22:41:25.944Z,39.97
2023-01-05T22:43:53.361Z,42.47
2023-01-05T22:46:21.824Z,52.67
2023-01-05T22:48:50.029Z,43.97
2023-01-05T22:51:19.220Z,44.20
2023-01-05T22:53:46.975Z,50.87
2023-01-05T22:56:15.281Z,36.43
2023-01-05T22:58:42.706Z,45.47
2023-01-05T23:01:10.971Z,44.20
2023-01-05T23:03:38.346Z,40.40
2023-01-05T23:06:05.912Z,41.47
2023-01-05T23:08:34.843Z,37.43
2023-01-05T23:11:09.545Z,55.57
2023-01-05T23:13:37.145Z,45.07
2023-01-05T23:16:05.347Z,48.70
2023-01-05T23:18:33.022Z,36.33
2023-01-05T23:21:02.845Z,44.57
2023-01-05T23:23:30.644Z,35.53
2023-01-05T23:25:57.938Z,38.43
2023-01-05T23:28:26.246Z,38.40
2023-01-05T23:30:54.414Z,36.07
2023-01-05T23:33:23.703Z,35.90
2023-01-05T23:35:51.835Z,33.63
2023-01-05T23:38:19.301Z,34.30
2023-01-05T23:40:47.737Z,30.10
2023-01-05T23:43:16.004Z,32.17
2023-01-05T23:45:43.682Z,33.10
2023-01-05T23:48:11.188Z,25.53
2023-01-05T23:50:42.564Z,25.80
2023-01-05T23:53:10.245Z,19.07
2023-01-05T23:55:37.757Z,27.07
2023-01-05T23:58:05.148Z,24.77
